STL weather

St Louis Lambert International Airport
St Louis, Missouri, United States

Public forecast

Using degrees Fahrenheit for public forecast. Weather courtesy of forecast.io.

METAR (pilot weather report)

Retrieved 2018/06/18 13:51 UTC (1 hour ago):

KSTL 181351Z 25010KT 10SM SCT250 29/22 A3008 RMK AO2 SLP170 T02940222

TAF (pilot weather forecast)

Retrieved 2018/06/18 12:22 UTC (2 hours ago):

TAF KSTL 181120Z 1812/1918 23009KT P6SM FEW060 SCT250 FM182000 21009KT P6SM SCT060 FM190500 24008KT P6SM FEW050 SCT250